Terminal Aerodrome Forecast
Issued by NWS

Current Version | Previous Version | Text Only | Print | Product List | Glossary Off
Versions: 1 2 3 4 5 6 7 8 9 10 11 12 13 14 15 16 17 18

000
FTUS41 KILN 100500
TAFLUK
TAF
KLUK 100525Z 1006/1106 00000KT P6SM SCT110
      TEMPO 1006/1009 BKN110
     FM100900 00000KT P6SM SKC
      TEMPO 1009/1011 2SM BR
     FM101500 36006KT P6SM FEW050
     FM110000 00000KT P6SM SKC=

USA.gov is the U.S. government's official web portal to all federal, state and local government web resources and services.